Cloverdale, Vermont
Current Conditions -  °F | °C
As of 4:34 PM on Wednesday 26 Nov 2014 (Local Time) from KBTV Reporting Station
Light Snow Light Snow  
Wind Chill: 22°   Ceiling: 800
Heat Index: 30°   Visibility: 1mi
Dew Point: 26°   Wind: 9mph
Humidity: 85%   Direction: 340°NNW
Pressure: 30.13"   Gusts: NA
Location:  44.6543°N, 72.8545°W
Report Text: KBTV 262134Z 34008KT 1SM R15/P6000FT -SN BR VV008 M01/M03 A3013 RMK AO2 P0004 T10111033 $
Loading
Personal Weather Stations






























Interactive Weather Map New forecast layout! Learn more

10-Day Weather Forecast

Advertisements
Track Severe Weather on mobile